Pagrindinis puslapis
METAR-TAF:

METAR-TAF

Oro uostai :

Budė, Norvegija

platuma: 67-16N, ilguma: 014-22E, Aukštis: 1 m

Dabartinis oras

Ataskaita buvo paskelbta 31 minutes, ne 23:50 UTC
Vėjas 11 kt iš Pietų/Pietvakarių
Temperatūra 8°C
Drėgmė 87%
Slėgis 995 hPa
Matomumas 10 km arba daugiau
Mažai debesys ne aukštis 1500 ft
Su prošvaistėmis ne aukštis 3000 ft
lietus

METAR: ENBO 232350Z 21011KT 9999 -SHRA FEW015 BKN030 08/06 Q0995

Laikas: 02:21 (00:21 UTC)

Prognozė

Prognozė galioja nuo 24 metu 00 UTC su 24 metu 24 UTC
Vėjas 8 kt iš Pietų
Matomumas 10 km arba daugiau
Mažai debesys ne aukštis 1500 ft
Išsisklaidę debesys ne aukštis 4000 ft
Tapsmas
nuo 24 metu 06 UTC su 24 metu 08 UTC
Vėjas 10 kt iš Rytų

TAF: ENBO 2400/2424 18008KT 9999 FEW015 SCT040 BECMG 2406/2408 10010KT

Orai ataskaitas ir orų prognozės (METAR, TAF).

turimą stotys yra geltonos ir raudonos taškus žemėlapyje.

Perkelti pele per norėdami pamatyti stoties vardą.

Tada spustelėkite, norėdami matyti oro stebėjimo ir prognozės.

Norėdami pakeisti žemėlapį: spustelėkite ant žalios mygtukų su juodo kryžiaus žemyn,; žalią mygtuką su brūkšneliu, jei norite nutolinti; arba žalių rodyklių gretimoms žemėlapius.


METAR-TAF: